Wetterdaten: Woche 11.11.13 - 17.11.13 (KW46)
Datum Zeit Temp. Aussen +5cm Feuchte Auss Luftdruck Regen Sonnenschein Regendauer UV Solar Windben
11.11.2013 00:00 3,3 C 1,9 C 96 % 1023,5 hPa 0,0 l/m 0,00 h 0,00 h 0,0 UV-I 0 W/m 0,4 km/h (0 Bft)
11.11.2013 01:00 2,9 C 1,5 C 97 % 1024,3 hPa 0,0 l/m 0,00 h 0,00 h 0,0 UV-I 0 W/m 0,2 km/h (0 Bft)
11.11.2013 02:00 2,8 C 1,4 C 97 % 1025,1 hPa 0,0 l/m 0,00 h 0,00 h 0,0 UV-I 0 W/m 0,4 km/h (0 Bft)
11.11.2013 03:00 2,6 C 1,4 C 97 % 1025,5 hPa 0,0 l/m 0,00 h 0,00 h 0,0 UV-I 0 W/m 0,0 km/h (0 Bft)
11.11.2013 04:00 2,2 C 1,0 C 97 % 1025,9 hPa 0,0 l/m 0,00 h 0,00 h 0,0 UV-I 0 W/m 0,0 km/h (0 Bft)
11.11.2013 05:00 1,7 C 0,5 C 97 % 1026,7 hPa 0,0 l/m 0,00 h 0,00 h 0,0 UV-I 0 W/m 0,0 km/h (0 Bft)
11.11.2013 06:00 1,5 C 0,2 C 97 % 1027,5 hPa 0,0 l/m 0,00 h 0,00 h 0,0 UV-I 0 W/m 0,0 km/h (0 Bft)
11.11.2013 07:00 1,1 C -0,4 C 97 % 1028,0 hPa 0,2 l/m 0,00 h 0,00 h 0,0 UV-I 7 W/m 0,0 km/h (0 Bft)
11.11.2013 08:00 1,4 C 0,9 C 98 % 1028,4 hPa 0,0 l/m 0,00 h 0,03 h 0,0 UV-I 26 W/m 0,6 km/h (0 Bft)
11.11.2013 09:00 3,0 C 1,9 C 98 % 1029,1 hPa 0,0 l/m 0,17 h 0,00 h 0,0 UV-I 64 W/m 2,7 km/h (1 Bft)
11.11.2013 10:00 4,2 C 3,2 C 98 % 1029,6 hPa 0,0 l/m 0,47 h 0,00 h 0,0 UV-I 180 W/m 2,4 km/h (1 Bft)
11.11.2013 11:00 7,5 C 5,7 C 95 % 1029,8 hPa 0,0 l/m 0,83 h 0,00 h 0,0 UV-I 312 W/m 4,0 km/h (1 Bft)
11.11.2013 12:00 9,5 C 7,3 C 84 % 1029,5 hPa 0,0 l/m 0,80 h 0,00 h 0,5 UV-I 288 W/m 6,8 km/h (2 Bft)
11.11.2013 13:00 9,9 C 8,5 C 85 % 1029,3 hPa 0,0 l/m 0,50 h 0,00 h 0,0 UV-I 244 W/m 8,1 km/h (2 Bft)
11.11.2013 14:00 9,3 C 8,1 C 86 % 1029,0 hPa 0,0 l/m 0,03 h 0,00 h 0,0 UV-I 104 W/m 12,2 km/h (2 Bft)
11.11.2013 15:00 8,8 C 7,5 C 87 % 1028,6 hPa 0,0 l/m 0,00 h 0,00 h 0,0 UV-I 54 W/m 11,7 km/h (2 Bft)
11.11.2013 16:00 8,3 C 6,9 C 88 % 1028,8 hPa 0,0 l/m 0,13 h 0,00 h 0,0 UV-I 24 W/m 8,7 km/h (2 Bft)
11.11.2013 17:00 7,7 C 6,1 C 89 % 1028,8 hPa 0,0 l/m 0,00 h 0,00 h 0,0 UV-I 0 W/m 12,7 km/h (3 Bft)
11.11.2013 18:00 6,8 C 5,3 C 90 % 1029,0 hPa 0,0 l/m 0,00 h 0,00 h 0,0 UV-I 0 W/m 5,8 km/h (2 Bft)
11.11.2013 19:00 6,3 C 5,0 C 92 % 1029,0 hPa 0,0 l/m 0,00 h 0,00 h 0,0 UV-I 0 W/m 7,6 km/h (2 Bft)
11.11.2013 20:00 5,9 C 4,6 C 92 % 1029,0 hPa 0,0 l/m 0,00 h 0,00 h 0,0 UV-I 0 W/m 7,0 km/h (2 Bft)
11.11.2013 21:00 5,1 C 3,6 C 93 % 1028,9 hPa 0,0 l/m 0,00 h 0,00 h 0,0 UV-I 0 W/m 2,0 km/h (1 Bft)
11.11.2013 22:00 4,7 C 3,3 C 93 % 1028,5 hPa 0,0 l/m 0,00 h 0,00 h 0,0 UV-I 0 W/m 4,0 km/h (1 Bft)
11.11.2013 23:00 4,5 C 3,3 C 93 % 1028,3 hPa 0,0 l/m 0,00 h 0,00 h 0,0 UV-I 0 W/m 10,3 km/h (2 Bft)
12.11.2013 00:00 4,5 C 3,4 C 93 % 1028,1 hPa 0,0 l/m 0,00 h 0,00 h 0,0 UV-I 0 W/m 9,5 km/h (2 Bft)
12.11.2013 01:00 4,2 C 3,3 C 93 % 1027,7 hPa 0,0 l/m 0,00 h 0,00 h 0,0 UV-I 0 W/m 10,5 km/h (2 Bft)
12.11.2013 02:00 4,3 C 3,3 C 92 % 1027,1 hPa 0,0 l/m 0,00 h 0,00 h 0,0 UV-I 0 W/m 12,4 km/h (3 Bft)
12.11.2013 03:00 4,3 C 3,3 C 92 % 1026,4 hPa 0,0 l/m 0,00 h 0,00 h 0,0 UV-I 0 W/m 15,9 km/h (3 Bft)
12.11.2013 04:00 4,1 C 3,2 C 92 % 1025,6 hPa 0,0 l/m 0,00 h 0,00 h 0,0 UV-I 0 W/m 16,0 km/h (3 Bft)
12.11.2013 05:00 3,8 C 2,8 C 92 % 1025,2 hPa 0,0 l/m 0,00 h 0,00 h 0,0 UV-I 0 W/m 12,1 km/h (2 Bft)
12.11.2013 06:00 4,0 C 3,2 C 92 % 1025,0 hPa 0,0 l/m 0,00 h 0,00 h 0,0 UV-I 0 W/m 10,8 km/h (2 Bft)
12.11.2013 07:00 4,3 C 3,3 C 91 % 1025,1 hPa 0,0 l/m 0,00 h 0,00 h 0,0 UV-I 6 W/m 7,7 km/h (2 Bft)
12.11.2013 08:00 4,7 C 4,1 C 90 % 1025,1 hPa 0,0 l/m 0,00 h 0,00 h 0,0 UV-I 23 W/m 9,3 km/h (2 Bft)
12.11.2013 09:00 5,7 C 5,2 C 88 % 1024,9 hPa 0,0 l/m 0,00 h 0,00 h 0,0 UV-I 90 W/m 14,5 km/h (3 Bft)
12.11.2013 10:00 7,2 C 6,9 C 83 % 1024,9 hPa 0,0 l/m 0,00 h 0,00 h 0,0 UV-I 130 W/m 9,2 km/h (2 Bft)
12.11.2013 11:00 8,6 C 8,1 C 77 % 1024,5 hPa 0,0 l/m 0,07 h 0,00 h 0,0 UV-I 141 W/m 9,9 km/h (2 Bft)
12.11.2013 12:00 8,6 C 7,8 C 80 % 1023,9 hPa 0,0 l/m 0,00 h 0,00 h 0,0 UV-I 85 W/m 12,7 km/h (3 Bft)
12.11.2013 13:00 8,4 C 7,2 C 84 % 1023,5 hPa 0,0 l/m 0,00 h 0,13 h 0,0 UV-I 47 W/m 10,3 km/h (2 Bft)
12.11.2013 14:00 8,3 C 7,1 C 85 % 1023,6 hPa 0,0 l/m 0,00 h 0,00 h 0,0 UV-I 43 W/m 6,7 km/h (2 Bft)
12.11.2013 15:00 7,5 C 6,2 C 92 % 1023,8 hPa 0,0 l/m 0,00 h 0,10 h 0,0 UV-I 20 W/m 0,8 km/h (0 Bft)
12.11.2013 16:00 7,2 C 6,1 C 96 % 1023,7 hPa 0,0 l/m 0,00 h 0,13 h 0,0 UV-I 9 W/m 1,3 km/h (1 Bft)
12.11.2013 17:00 7,2 C 6,1 C 96 % 1024,0 hPa 0,2 l/m 0,00 h 0,17 h 0,0 UV-I 0 W/m 0,1 km/h (0 Bft)
12.11.2013 18:00 7,2 C 6,1 C 97 % 1024,4 hPa 0,0 l/m 0,00 h 0,00 h 0,0 UV-I 0 W/m 0,2 km/h (0 Bft)
12.11.2013 19:00 7,2 C 6,1 C 97 % 1024,8 hPa 0,2 l/m 0,00 h 0,33 h 0,0 UV-I 0 W/m 0,1 km/h (0 Bft)
12.11.2013 20:00 7,2 C 6,3 C 97 % 1025,6 hPa 0,4 l/m 0,00 h 0,47 h 0,0 UV-I 0 W/m 0,0 km/h (0 Bft)
12.11.2013 21:00 7,6 C 6,7 C 98 % 1026,4 hPa 0,0 l/m 0,00 h 0,43 h 0,0 UV-I 0 W/m 0,7 km/h (0 Bft)
12.11.2013 22:00 7,7 C 6,7 C 98 % 1027,0 hPa 0,2 l/m 0,00 h 0,10 h 0,0 UV-I 0 W/m 0,0 km/h (0 Bft)
12.11.2013 23:00 7,8 C 6,7 C 98 % 1027,8 hPa 0,0 l/m 0,00 h 0,03 h 0,0 UV-I 0 W/m 0,6 km/h (0 Bft)
13.11.2013 00:00 7,8 C 6,5 C 98 % 1028,4 hPa 0,0 l/m 0,00 h 0,00 h 0,0 UV-I 0 W/m 0,2 km/h (0 Bft)
13.11.2013 01:00 7,3 C 5,3 C 98 % 1028,8 hPa 0,0 l/m 0,00 h 0,00 h 0,0 UV-I 0 W/m 0,0 km/h (0 Bft)
13.11.2013 02:00 6,7 C 4,8 C 98 % 1029,3 hPa 0,0 l/m 0,00 h 0,00 h 0,0 UV-I 0 W/m 0,0 km/h (0 Bft)
13.11.2013 03:00 6,1 C 4,1 C 98 % 1029,7 hPa 0,0 l/m 0,00 h 0,00 h 0,0 UV-I 0 W/m 0,0 km/h (0 Bft)
13.11.2013 04:00 5,0 C 2,6 C 98 % 1029,9 hPa 0,0 l/m 0,00 h 0,00 h 0,0 UV-I 0 W/m 0,0 km/h (0 Bft)
13.11.2013 05:00 3,8 C 1,9 C 97 % 1030,3 hPa 0,0 l/m 0,00 h 0,03 h 0,0 UV-I 0 W/m 0,0 km/h (0 Bft)
13.11.2013 06:00 3,2 C 1,2 C 97 % 1030,8 hPa 0,0 l/m 0,00 h 0,00 h 0,0 UV-I 0 W/m 0,0 km/h (0 Bft)
13.11.2013 07:00 2,5 C 0,7 C 97 % 1031,3 hPa 0,0 l/m 0,00 h 0,00 h 0,0 UV-I 6 W/m 0,0 km/h (0 Bft)
13.11.2013 08:00 2,3 C 1,6 C 97 % 1031,8 hPa 0,0 l/m 0,00 h 0,00 h 0,0 UV-I 28 W/m 0,0 km/h (0 Bft)
13.11.2013 09:00 3,6 C 3,2 C 98 % 1032,5 hPa 0,0 l/m 0,83 h 0,00 h 0,0 UV-I 156 W/m 0,5 km/h (0 Bft)
13.11.2013 10:00 5,8 C 4,6 C 99 % 1032,7 hPa 0,0 l/m 0,93 h 0,00 h 0,0 UV-I 257 W/m 0,3 km/h (0 Bft)
13.11.2013 11:00 8,2 C 6,1 C 96 % 1032,7 hPa 0,0 l/m 0,97 h 0,00 h 0,0 UV-I 302 W/m 0,4 km/h (0 Bft)
13.11.2013 12:00 9,8 C 7,2 C 86 % 1032,4 hPa 0,0 l/m 0,90 h 0,00 h 0,0 UV-I 312 W/m 3,3 km/h (1 Bft)
13.11.2013 13:00 10,3 C 7,6 C 80 % 1032,0 hPa 0,0 l/m 0,87 h 0,00 h 0,0 UV-I 282 W/m 4,0 km/h (1 Bft)
13.11.2013 14:00 10,2 C 7,7 C 77 % 1031,7 hPa 0,0 l/m 0,83 h 0,00 h 0,0 UV-I 196 W/m 3,1 km/h (1 Bft)
13.11.2013 15:00 9,4 C 6,8 C 80 % 1031,1 hPa 0,0 l/m 0,43 h 0,00 h 0,0 UV-I 88 W/m 0,0 km/h (0 Bft)
13.11.2013 16:00 8,1 C 5,2 C 86 % 1030,7 hPa 0,0 l/m 0,00 h 0,00 h 0,0 UV-I 16 W/m 0,0 km/h (0 Bft)
13.11.2013 17:00 6,3 C 3,9 C 92 % 1030,3 hPa 0,0 l/m 0,00 h 0,00 h 0,0 UV-I 0 W/m 0,2 km/h (0 Bft)
13.11.2013 18:00 5,4 C 3,3 C 95 % 1030,0 hPa 0,0 l/m 0,00 h 0,00 h 0,0 UV-I 0 W/m 0,0 km/h (0 Bft)
13.11.2013 19:00 4,2 C 2,3 C 96 % 1029,7 hPa 0,0 l/m 0,00 h 0,00 h 0,0 UV-I 0 W/m 0,0 km/h (0 Bft)
13.11.2013 20:00 3,9 C 2,1 C 97 % 1029,3 hPa 0,0 l/m 0,00 h 0,00 h 0,0 UV-I 0 W/m 0,0 km/h (0 Bft)
13.11.2013 21:00 3,5 C 1,7 C 97 % 1028,6 hPa 0,0 l/m 0,00 h 0,00 h 0,0 UV-I 0 W/m 0,0 km/h (0 Bft)
13.11.2013 22:00 2,8 C 1,1 C 98 % 1028,1 hPa 0,0 l/m 0,00 h 0,00 h 0,0 UV-I 0 W/m 0,1 km/h (0 Bft)
13.11.2013 23:00 2,4 C 0,8 C 98 % 1027,6 hPa 0,0 l/m 0,00 h 0,00 h 0,0 UV-I 0 W/m 0,1 km/h (0 Bft)
14.11.2013 00:00 1,4 C 0,7 C 98 % 1027,2 hPa 0,0 l/m 0,00 h 0,00 h 0,0 UV-I 0 W/m 5,3 km/h (1 Bft)
14.11.2013 01:00 0,9 C 0,5 C 98 % 1026,5 hPa 0,0 l/m 0,00 h 0,00 h 0,0 UV-I 0 W/m 5,0 km/h (1 Bft)
14.11.2013 02:00 1,0 C 0,6 C 98 % 1025,6 hPa 0,2 l/m 0,00 h 0,10 h 0,0 UV-I 0 W/m 5,1 km/h (1 Bft)
14.11.2013 03:00 1,3 C 0,7 C 98 % 1024,3 hPa 0,0 l/m 0,00 h 0,00 h 0,0 UV-I 0 W/m 6,1 km/h (2 Bft)
14.11.2013 04:00 1,5 C 1,1 C 98 % 1023,6 hPa 0,0 l/m 0,00 h 0,00 h 0,0 UV-I 0 W/m 2,9 km/h (1 Bft)
14.11.2013 05:00 1,5 C 1,0 C 99 % 1022,6 hPa 0,0 l/m 0,00 h 0,03 h 0,0 UV-I 0 W/m 3,4 km/h (1 Bft)
14.11.2013 06:00 1,3 C 0,6 C 99 % 1021,3 hPa 0,0 l/m 0,00 h 0,00 h 0,0 UV-I 0 W/m 3,0 km/h (1 Bft)
14.11.2013 07:00 1,1 C 0,1 C 99 % 1020,7 hPa 0,0 l/m 0,00 h 0,00 h 0,0 UV-I 7 W/m 1,3 km/h (1 Bft)
14.11.2013 08:00 1,0 C 0,1 C 99 % 1020,2 hPa 0,0 l/m 0,00 h 0,00 h 0,0 UV-I 19 W/m 4,0 km/h (1 Bft)
14.11.2013 09:00 2,2 C 1,9 C 99 % 1019,6 hPa 0,0 l/m 0,00 h 0,03 h 0,0 UV-I 54 W/m 7,3 km/h (2 Bft)
14.11.2013 10:00 3,3 C 3,0 C 99 % 1019,2 hPa 0,0 l/m 0,00 h 0,03 h 0,0 UV-I 49 W/m 8,0 km/h (2 Bft)
14.11.2013 11:00 4,5 C 4,0 C 99 % 1018,6 hPa 0,0 l/m 0,00 h 0,27 h 0,0 UV-I 62 W/m 6,5 km/h (2 Bft)
14.11.2013 12:00 4,9 C 4,3 C 99 % 1018,1 hPa 0,0 l/m 0,00 h 0,50 h 0,0 UV-I 37 W/m 8,2 km/h (2 Bft)
14.11.2013 13:00 5,4 C 4,4 C 98 % 1017,8 hPa 0,4 l/m 0,00 h 0,97 h 0,0 UV-I 44 W/m 3,2 km/h (1 Bft)
14.11.2013 14:00 5,6 C 4,4 C 98 % 1017,6 hPa 0,0 l/m 0,00 h 0,10 h 0,0 UV-I 20 W/m 2,7 km/h (1 Bft)
14.11.2013 15:00 5,7 C 4,4 C 98 % 1017,5 hPa 0,0 l/m 0,00 h 0,17 h 0,0 UV-I 8 W/m 2,2 km/h (1 Bft)
14.11.2013 16:00 5,7 C 4,6 C 98 % 1017,5 hPa 0,0 l/m 0,00 h 0,00 h 0,0 UV-I 5 W/m 0,6 km/h (0 Bft)
14.11.2013 17:00 5,7 C 4,5 C 98 % 1017,8 hPa 0,0 l/m 0,00 h 0,10 h 0,0 UV-I 0 W/m 0,8 km/h (0 Bft)
14.11.2013 18:00 5,7 C 5,0 C 98 % 1018,1 hPa 0,0 l/m 0,00 h 0,00 h 0,0 UV-I 0 W/m 0,0 km/h (0 Bft)
14.11.2013 19:00 5,8 C 5,0 C 98 % 1018,6 hPa 0,0 l/m 0,00 h 0,00 h 0,0 UV-I 0 W/m 0,0 km/h (0 Bft)
14.11.2013 20:00 5,9 C 5,0 C 98 % 1019,2 hPa 0,0 l/m 0,00 h 0,03 h 0,0 UV-I 0 W/m 0,0 km/h (0 Bft)
14.11.2013 21:00 6,0 C 5,0 C 98 % 1019,8 hPa 0,2 l/m 0,00 h 0,10 h 0,0 UV-I 0 W/m 0,0 km/h (0 Bft)
14.11.2013 22:00 6,0 C 5,0 C 98 % 1020,2 hPa 0,0 l/m 0,00 h 0,00 h 0,0 UV-I 0 W/m 0,0 km/h (0 Bft)
14.11.2013 23:00 5,9 C 5,0 C 98 % 1020,5 hPa 0,0 l/m 0,00 h 0,40 h 0,0 UV-I 0 W/m 0,0 km/h (0 Bft)
15.11.2013 00:00 5,9 C 5,0 C 98 % 1021,2 hPa 0,0 l/m 0,00 h 0,10 h 0,0 UV-I 0 W/m 0,0 km/h (0 Bft)
15.11.2013 01:00 6,0 C 5,1 C 98 % 1021,7 hPa 0,2 l/m 0,00 h 0,23 h 0,0 UV-I 0 W/m 0,0 km/h (0 Bft)
15.11.2013 02:00 6,3 C 5,6 C 98 % 1022,2 hPa 0,0 l/m 0,00 h 0,27 h 0,0 UV-I 0 W/m 1,2 km/h (1 Bft)
15.11.2013 03:00 6,4 C 5,6 C 98 % 1022,6 hPa 0,0 l/m 0,00 h 0,00 h 0,0 UV-I 0 W/m 5,0 km/h (1 Bft)
15.11.2013 04:00 6,4 C 5,6 C 98 % 1023,2 hPa 0,0 l/m 0,00 h 0,00 h 0,0 UV-I 0 W/m 1,1 km/h (1 Bft)
15.11.2013 05:00 6,4 C 5,6 C 99 % 1023,8 hPa 0,0 l/m 0,00 h 0,00 h 0,0 UV-I 0 W/m 0,0 km/h (0 Bft)
15.11.2013 06:00 6,4 C 5,4 C 99 % 1024,6 hPa 0,0 l/m 0,00 h 0,00 h 0,0 UV-I 0 W/m 1,5 km/h (1 Bft)
15.11.2013 07:00 6,3 C 5,0 C 99 % 1025,0 hPa 0,0 l/m 0,00 h 0,00 h 0,0 UV-I 5 W/m 2,8 km/h (1 Bft)
15.11.2013 08:00 6,2 C 5,1 C 98 % 1025,8 hPa 0,0 l/m 0,00 h 0,00 h 0,0 UV-I 11 W/m 0,0 km/h (0 Bft)
15.11.2013 09:00 6,4 C 5,6 C 99 % 1026,7 hPa 0,0 l/m 0,00 h 0,00 h 0,0 UV-I 27 W/m 0,8 km/h (0 Bft)
15.11.2013 10:00 6,7 C 6,0 C 98 % 1027,6 hPa 0,0 l/m 0,03 h 0,00 h 0,0 UV-I 91 W/m 0,6 km/h (0 Bft)
15.11.2013 11:00 7,8 C 6,8 C 94 % 1027,9 hPa 0,0 l/m 0,00 h 0,00 h 0,0 UV-I 126 W/m 1,4 km/h (1 Bft)
15.11.2013 12:00 8,3 C 6,8 C 88 % 1027,9 hPa 0,0 l/m 0,33 h 0,00 h 0,0 UV-I 195 W/m 8,6 km/h (2 Bft)
15.11.2013 13:00 8,5 C 7,0 C 87 % 1028,0 hPa 0,0 l/m 0,57 h 0,00 h 0,0 UV-I 197 W/m 9,8 km/h (2 Bft)
15.11.2013 14:00 8,8 C 7,5 C 86 % 1028,3 hPa 0,0 l/m 0,47 h 0,00 h 0,0 UV-I 142 W/m 10,3 km/h (2 Bft)
15.11.2013 15:00 8,2 C 6,9 C 88 % 1028,7 hPa 0,0 l/m 0,03 h 0,00 h 0,0 UV-I 53 W/m 8,6 km/h (2 Bft)
15.11.2013 16:00 7,4 C 6,1 C 89 % 1029,1 hPa 0,0 l/m 0,00 h 0,00 h 0,0 UV-I 13 W/m 6,9 km/h (2 Bft)
15.11.2013 17:00 6,2 C 4,8 C 92 % 1029,4 hPa 0,0 l/m 0,00 h 0,00 h 0,0 UV-I 0 W/m 4,4 km/h (1 Bft)
15.11.2013 18:00 4,8 C 3,1 C 94 % 1029,6 hPa 0,0 l/m 0,00 h 0,00 h 0,0 UV-I 0 W/m 0,2 km/h (0 Bft)
15.11.2013 19:00 3,6 C 1,9 C 96 % 1030,0 hPa 0,0 l/m 0,00 h 0,00 h 0,0 UV-I 0 W/m 0,0 km/h (0 Bft)
15.11.2013 20:00 2,6 C 1,0 C 97 % 1030,6 hPa 0,0 l/m 0,00 h 0,00 h 0,0 UV-I 0 W/m 0,0 km/h (0 Bft)
15.11.2013 21:00 1,9 C 0,6 C 97 % 1031,0 hPa 0,0 l/m 0,00 h 0,00 h 0,0 UV-I 0 W/m 0,0 km/h (0 Bft)
15.11.2013 22:00 1,6 C 0,3 C 97 % 1031,2 hPa 0,0 l/m 0,00 h 0,00 h 0,0 UV-I 0 W/m 0,0 km/h (0 Bft)
15.11.2013 23:00 1,1 C -0,5 C 97 % 1031,8 hPa 0,0 l/m 0,00 h 0,00 h 0,0 UV-I 0 W/m 0,0 km/h (0 Bft)
16.11.2013 00:00 0,6 C -0,6 C 97 % 1032,0 hPa 0,0 l/m 0,00 h 0,00 h 0,0 UV-I 0 W/m 0,0 km/h (0 Bft)
16.11.2013 01:00 0,2 C -0,7 C 97 % 1031,8 hPa 0,0 l/m 0,00 h 0,00 h 0,0 UV-I 0 W/m 0,0 km/h (0 Bft)
16.11.2013 02:00 -0,1 C -0,6 C 97 % 1031,7 hPa 0,0 l/m 0,00 h 0,00 h 0,0 UV-I 0 W/m 0,0 km/h (0 Bft)
16.11.2013 03:00 -0,0 C -0,3 C 97 % 1031,5 hPa 0,0 l/m 0,00 h 0,00 h 0,0 UV-I 0 W/m 0,0 km/h (0 Bft)
16.11.2013 04:00 0,3 C -0,3 C 98 % 1031,4 hPa 0,0 l/m 0,00 h 0,00 h 0,0 UV-I 0 W/m 0,3 km/h (0 Bft)
16.11.2013 05:00 0,2 C -0,3 C 98 % 1031,8 hPa 0,0 l/m 0,00 h 0,00 h 0,0 UV-I 0 W/m 0,0 km/h (0 Bft)
16.11.2013 06:00 0,0 C -0,6 C 98 % 1032,0 hPa 0,0 l/m 0,00 h 0,00 h 0,0 UV-I 0 W/m 0,0 km/h (0 Bft)
16.11.2013 07:00 -0,3 C -0,9 C 98 % 1032,2 hPa 0,0 l/m 0,00 h 0,00 h 0,0 UV-I 5 W/m 0,0 km/h (0 Bft)
16.11.2013 08:00 -0,7 C -1,0 C 98 % 1032,4 hPa 0,0 l/m 0,00 h 0,00 h 0,0 UV-I 24 W/m 0,3 km/h (0 Bft)
16.11.2013 09:00 -0,5 C -0,4 C 98 % 1032,7 hPa 0,0 l/m 0,00 h 0,00 h 0,0 UV-I 64 W/m 1,6 km/h (1 Bft)
16.11.2013 10:00 0,5 C 0,7 C 98 % 1032,5 hPa 0,0 l/m 0,00 h 0,00 h 0,0 UV-I 103 W/m 6,8 km/h (2 Bft)
16.11.2013 11:00 1,6 C 1,8 C 98 % 1032,2 hPa 0,0 l/m 0,00 h 0,00 h 0,0 UV-I 124 W/m 2,2 km/h (1 Bft)
16.11.2013 12:00 2,5 C 2,8 C 98 % 1031,9 hPa 0,0 l/m 0,00 h 0,00 h 0,0 UV-I 128 W/m 2,2 km/h (1 Bft)
16.11.2013 13:00 3,2 C 3,3 C 97 % 1031,3 hPa 0,0 l/m 0,23 h 0,00 h 0,0 UV-I 164 W/m 3,2 km/h (1 Bft)
16.11.2013 14:00 3,3 C 3,2 C 95 % 1030,8 hPa 0,0 l/m 0,00 h 0,00 h 0,0 UV-I 110 W/m 0,1 km/h (0 Bft)
16.11.2013 15:00 3,2 C 2,8 C 95 % 1030,2 hPa 0,0 l/m 0,33 h 0,00 h 0,0 UV-I 76 W/m 0,0 km/h (0 Bft)
16.11.2013 16:00 2,7 C 1,7 C 95 % 1029,9 hPa 0,0 l/m 0,00 h 0,00 h 0,0 UV-I 20 W/m 0,0 km/h (0 Bft)
16.11.2013 17:00 2,0 C 0,5 C 96 % 1029,7 hPa 0,0 l/m 0,00 h 0,00 h 0,0 UV-I 0 W/m 0,0 km/h (0 Bft)
16.11.2013 18:00 1,9 C 1,3 C 96 % 1029,6 hPa 0,0 l/m 0,00 h 0,00 h 0,0 UV-I 0 W/m 0,3 km/h (0 Bft)
16.11.2013 19:00 2,3 C 1,7 C 97 % 1029,4 hPa 0,0 l/m 0,00 h 0,00 h 0,0 UV-I 0 W/m 0,2 km/h (0 Bft)
16.11.2013 20:00 2,2 C 1,5 C 97 % 1029,1 hPa 0,0 l/m 0,00 h 0,00 h 0,0 UV-I 0 W/m 0,1 km/h (0 Bft)
16.11.2013 21:00 1,7 C 1,1 C 97 % 1028,9 hPa 0,0 l/m 0,00 h 0,00 h 0,0 UV-I 0 W/m 0,0 km/h (0 Bft)
16.11.2013 22:00 1,6 C 1,1 C 97 % 1028,6 hPa 0,0 l/m 0,00 h 0,00 h 0,0 UV-I 0 W/m 0,0 km/h (0 Bft)
16.11.2013 23:00 1,6 C 1,1 C 97 % 1028,4 hPa 0,0 l/m 0,00 h 0,00 h 0,0 UV-I 0 W/m 0,1 km/h (0 Bft)
17.11.2013 00:00 1,7 C 1,1 C 98 % 1027,9 hPa 0,2 l/m 0,00 h 0,00 h 0,0 UV-I 0 W/m 0,0 km/h (0 Bft)
17.11.2013 01:00 1,9 C 1,3 C 98 % 1027,5 hPa 0,0 l/m 0,00 h 0,00 h 0,0 UV-I 0 W/m 0,0 km/h (0 Bft)
17.11.2013 02:00 2,0 C 1,7 C 98 % 1027,4 hPa 0,0 l/m 0,00 h 0,00 h 0,0 UV-I 0 W/m 0,0 km/h (0 Bft)
17.11.2013 03:00 2,1 C 1,7 C 98 % 1027,4 hPa 0,0 l/m 0,00 h 0,00 h 0,0 UV-I 0 W/m 0,0 km/h (0 Bft)
17.11.2013 04:00 2,2 C 1,7 C 98 % 1027,3 hPa 0,0 l/m 0,00 h 0,00 h 0,0 UV-I 0 W/m 0,0 km/h (0 Bft)
17.11.2013 05:00 2,4 C 1,8 C 98 % 1026,8 hPa 0,0 l/m 0,00 h 0,00 h 0,0 UV-I 0 W/m 1,8 km/h (1 Bft)
17.11.2013 06:00 2,2 C 1,4 C 98 % 1026,2 hPa 0,0 l/m 0,00 h 0,00 h 0,0 UV-I 0 W/m 0,9 km/h (0 Bft)
17.11.2013 07:00 2,1 C 1,7 C 98 % 1026,3 hPa 0,0 l/m 0,00 h 0,00 h 0,0 UV-I 0 W/m 0,0 km/h (0 Bft)
17.11.2013 08:00 2,4 C 2,2 C 98 % 1026,4 hPa 0,0 l/m 0,00 h 0,00 h 0,0 UV-I 21 W/m 0,0 km/h (0 Bft)
17.11.2013 09:00 2,9 C 2,8 C 98 % 1026,4 hPa 0,0 l/m 0,00 h 0,00 h 0,0 UV-I 41 W/m 0,3 km/h (0 Bft)
17.11.2013 10:00 3,3 C 3,3 C 99 % 1026,2 hPa 0,0 l/m 0,00 h 0,00 h 0,0 UV-I 67 W/m 3,8 km/h (1 Bft)
17.11.2013 11:00 4,0 C 4,2 C 99 % 1025,7 hPa 0,0 l/m 0,00 h 0,00 h 0,0 UV-I 92 W/m 1,4 km/h (1 Bft)
17.11.2013 12:00 4,9 C 5,0 C 98 % 1024,8 hPa 0,0 l/m 0,27 h 0,00 h 0,0 UV-I 136 W/m 0,2 km/h (0 Bft)
17.11.2013 13:00 5,7 C 5,7 C 93 % 1023,8 hPa 0,0 l/m 0,43 h 0,00 h 0,0 UV-I 169 W/m 2,4 km/h (1 Bft)
17.11.2013 14:00 5,9 C 5,6 C 92 % 1023,1 hPa 0,0 l/m 0,00 h 0,00 h 0,0 UV-I 60 W/m 0,3 km/h (0 Bft)
17.11.2013 15:00 5,9 C 5,1 C 92 % 1022,4 hPa 0,0 l/m 0,00 h 0,00 h 0,0 UV-I 26 W/m 1,5 km/h (1 Bft)
17.11.2013 16:00 5,8 C 4,7 C 92 % 1022,0 hPa 0,0 l/m 0,00 h 0,00 h 0,0 UV-I 7 W/m 3,5 km/h (1 Bft)
17.11.2013 17:00 5,3 C 4,4 C 92 % 1021,7 hPa 0,0 l/m 0,00 h 0,00 h 0,0 UV-I 0 W/m 1,1 km/h (1 Bft)
17.11.2013 18:00 5,1 C 3,9 C 92 % 1021,4 hPa 0,0 l/m 0,00 h 0,00 h 0,0 UV-I 0 W/m 0,3 km/h (0 Bft)
17.11.2013 19:00 4,9 C 3,9 C 92 % 1020,9 hPa 0,0 l/m 0,00 h 0,00 h 0,0 UV-I 0 W/m 0,6 km/h (0 Bft)
17.11.2013 20:00 4,7 C 3,7 C 92 % 1020,4 hPa 0,0 l/m 0,00 h 0,00 h 0,0 UV-I 0 W/m 0,1 km/h (0 Bft)
17.11.2013 21:00 4,3 C 3,0 C 92 % 1019,9 hPa 0,0 l/m 0,00 h 0,00 h 0,0 UV-I 0 W/m 0,1 km/h (0 Bft)
17.11.2013 22:00 3,8 C 2,8 C 93 % 1019,5 hPa 0,0 l/m 0,00 h 0,00 h 0,0 UV-I 0 W/m 0,0 km/h (0 Bft)
17.11.2013 23:00 3,8 C 3,0 C 94 % 1018,9 hPa 0,0 l/m 0,00 h 0,00 h 0,0 UV-I 0 W/m 0,0 km/h (0 Bft)
Min-Datum _ 16.11.13 16.11.13 12.11.13 14.11.13 - - - - - 11.11.13
_ Min-Zeit 08:06 01:36 11:32 14:50 - - - - - 00:00
Minimum _ -0,7 C -1,1 C 75 % 1017,4 hPa - - - - - 0,0 km/h (0 Bft)
Max-Datum _ 11.11.13 11.11.13 16.11.13 13.11.13 12.11.13 11.11.13 11.11.13 11.11.13 11.11.13 12.11.13
_ Max-Zeit 13:24 13:14 23:56 10:36 20:02 09:06 08:28 12:16 11:40 11:54
Maximum _ 10,6 C 8,9 C 100 % 1032,8 hPa 0,4 l/m 0,03 h 0,03 h 0,5 UV-I 431 W/m 25,7 km/h
S-SO (4 Bft)
Durchschnitt _ 4,5 C 3,5 C 95 % 1026,6 hPa #2,4 l/m #11:28 h #5:28 h 0,5 UV-I 89 W/m 2,8 km/h (1 Bft)
© 2013 W. Hausmann